HOURLY OBSERVATIONS


Time
(EST)
Temperature
°F
Dew Point
°F
Humidity
%
Wind
mph
Pressure
mb
Precip.
Hour
in
Precip.
Day
in
6 Hr
Max Temp
°F
6 Hr
Min Temp
°F
18 17:00 40 37 91 SW 1 G 6 1005.8 0.02 0.68
18 16:00 39 36 91 WSW 2 G 8 1005.8 0.01 0.66
18 15:00 37 35 91 SW 3 G 13 1006.6 0.03 0.65
18 14:00 36 34 91 WSW 3 G 9 1007.7 0.01 0.62
18 13:00 35 32 91 SW 2 G 7 1010.0 0.02 0.61 35 27
18 12:00 34 31 91 WSW 3 G 8 1012.8 0.05 0.59
18 11:00 33 31 91 SSW 1 G 7 1014.9 0.07 0.54
18 10:00 32 30 91 E 2 G 6 1016.7 0.20 0.47
18 09:00 30 28 90 ESE 1 G 7 1018.5 0.06 0.00
18 08:00 27 24 89 SSW 1 G 6 1021.2 0.07 0.00
18 07:00 27 24 89 E 1 G 4 1023.4 0.02 0.00 27 24
18 06:00 26 23 88 ENE 1 G 4 1025.6 0.00
18 05:00 25 22 87 ESE 1 G 8 1026.0 0.00
18 04:00 25 21 88 NE 1 G 4 1026.8 0.00
18 03:00 24 21 87 NE 1 G 3 1029.8 0.05 0.00
18 02:00 24 20 84 Calm 1032.3 0.07 0.00
18 01:00 27 18 69 Calm 1033.6 0.00 27 26
18 00:00 26 18 69 SSE 0 G 4 1034.7 0.00
17 23:00 26 18 70 NE 1 G 1 1035.3 0.00
17 22:00 26 17 70 NE 0 G 2 1036.6 0.00
17 21:00 26 17 70 Calm 1038.1 0.00
17 20:00 26 17 70 ESE 0 G 2 1038.7 0.00
17 19:00 26 17 70 Calm 1039.3 0.00 27 26
17 18:00 26 17 70 ENE 0 G 2 1039.4 0.00
17 17:00 26 18 69 SW 0 G 1 1040.3 0.00
17 16:00 27 18 69 SSW 0 G 3 1040.8 0.00
17 15:00 27 18 69 Calm 1041.2 0.00
17 14:00 27 18 70 Calm 1041.7 0.00
17 13:00 27 18 69 Calm 1042.5 0.00 27 23
17 12:00 26 18 70 NNE 0 G 2 1043.8 0.00
17 11:00 25 17 69 SSE 1 G 3 1044.7 0.00
17 10:00 25 16 70 S 0 G 2 1044.6 0.00
17 09:00 24 16 72 W 1 G 5 1044.0 0.00
17 08:00 23 16 75 Calm 1043.8 0.00
17 07:00 23 17 76 Calm 1043.9 0.00 26 23
17 06:00 23 16 74 NNW 0 G 2 1043.6 0.00
17 05:00 24 15 70 ENE 0 G 2 1042.9 0.00
17 04:00 24 16 71 NE 1 G 4 1042.3 0.00
17 03:00 25 17 71 SE 1 G 4 1041.6 0.00
17 02:00 26 20 78 S 0 G 2 1040.1 0.00
17 01:00 26 20 76 WNW 1 G 4 1039.3 0.00 28 26
17 00:00 26 19 75 W 0 G 3 1038.7 0.00
16 23:00 26 19 75 NNE 1 G 3 1037.7 0.00
16 22:00 26 20 76 WNW 2 G 6 1037.0 0.00
16 21:00 27 20 74 WNW 1 G 5 1036.6 0.00
16 20:00 28 20 74 W 2 G 5 1035.6 0.00
16 19:00 28 20 73 W 2 G 6 1034.3 0.00 34 28
16 18:00 28 20 72 WNW 2 G 7 1032.9 0.00
16 17:00 29 21 73 NW 1 G 17 1031.9 0.00
16 16:00 30 24 81 WSW 1 G 6 1030.9 0.00
16 15:00 30 25 81 NNW 2 G 6 1029.4 0.00
16 14:00 32 25 77 WNW 1 G 6 1028.3 0.00
16 13:00 34 25 70 WSW 1 G 6 1027.9 0.00 36 34
16 12:00 35 25 68 NW 1 G 6 1027.8 0.00
16 11:00 35 27 73 SW 3 G 7 1028.0 0.00
16 10:00 36 28 74 NW 2 G 10 1026.8 0.00
16 09:00 36 29 77 W 2 G 6 1026.0 0.00
16 08:00 36 29 77 W 1 G 2 1026.1 0.00
16 07:00 36 29 77 SW 2 G 6 1025.2 0.00 39 35
16 06:00 35 28 75 WSW 1 G 3 1024.1 0.00
16 05:00 35 29 77 N 1 G 4 1023.6 0.00
16 04:00 36 31 82 W 1 G 7 1022.7 0.00
16 03:00 37 34 89 N 1 G 4 1021.4 0.00
16 02:00 38 35 89 WNW 0 G 4 1020.1 0.00
16 01:00 39 36 88 NNW 2 G 5 1018.5 0.00 47 39
16 00:00 41 38 88 E 0 G 6 1017.3 0.07
15 23:00 44 41 91 W 1 G 9 1016.1 0.07
15 22:00 47 44 91 WSW 1 G 5 1014.5 0.07
15 21:00 47 44 91 SSW 1 G 4 1014.2 0.07
15 20:00 46 43 90 SW 0 G 6 1014.5 0.07
15 19:00 45 42 89 W 0 G 2 1014.6 0.01 0.07 52 45
15 18:00 46 42 84 Calm 1015.2 0.06 0.06